Huvudsida
METAR-TAF:

METAR-TAF

Flygplatser :

Florø flygplats

Florø, Norge

latitud: 61-35N, longitud: 005-02E, höjd: 0 m

Aktuellt väderrapport

Denna rapport gjordes för 26 minuter sedan, klockan 12:50 UTC
Vind 11 kt från ost
Temperatur 14°C
Fuktighet 94%
Tryck 991 hPa
Sikt: 7000 m
regn

METAR: ENFL 171250Z AUTO 10011KT 7000NDV RA FEW011/// OVC025/// 14/13 Q0991

Tid: 15:16 (13:16 UTC)

Väderprognos

Denna rapport gjordes för 20 timmar och 16 minuter sedan, klockan 17:00 UTC
Prognos gäller från 16 kl. 18 UTC till 16 kl. 22 UTC
Vind 12 kt från sydost
Sikt 10 km eller mer
Få moln på en höjd av 2000 ft
Brutna moln på en höjd av 3000 ft
lätt regn

TAF: ENFL 161700Z 1618/1622 14012KT 9999 -RA FEW020 BKN030

Aktuella väderrapporter och prognoser från 4000 flygplatser (METAR- och TAF-rapporter).

De tillgängliga stationerna syns som gula och röda prickar på kartan.

För musen över prickarna för att se namnen på stationerna.

Klicka sedan för att få väderrapporter och prognoser.

För att ändra kartan: Klicka på de gröna knapparna med ett svart kors på för att zooma in; den gröna knappen med ett streck på för att zooma ut; eller på de gröna pilarna för angränsande kartor.


METAR-TAF: